Terminal Aerodrome Forecast
Issued by NWS

Home | Current Version | Previous Version | Text Only | Print | Product List | Glossary On
Versions: 1 2 3 4 5 6 7 8 9 10 11 12 13 14 15 16 17 18 19 20 21 22 23 24 25 26 27 28 29 30
000
FTUS45 KGJT 011727
TAFVEL
TAF
KVEL 011727Z 0118/0218 14003KT P6SM SCT110 SCT200
     FM012000 22006KT P6SM VCSH SCT100 BKN200
     FM020200 28004KT P6SM SCT200
     FM021400 00000KT P6SM SCT200=

USA.gov is the U.S. government's official web portal to all federal, state and local government web resources and services.